KETH

Wheaton Municipal Airport

Wheaton, Minnesota, USA
METAR KETH 161414Z AUTO 00000KT 10SM OVC060 M03/M04 A2980 RMK AO2
Observed Flight Rules
Dec-16 @ 14:14 UTC (23 minutes ago) Visual Flight Rules
Wind Visibility Clouds
Calm 10 miles
  • Overcast at 6,000' AGL
Temperatures Readings
Current -3°C / 27°F
Dewpoint -4°C / 25°F
Humidity 93%
Altimeter 29.8" Hg
Pressure 1009 hPa
Elevation 313
METAR KETH 161414Z AUTO 00000KT 10SM OVC060 M03/M04 A2980 RMK AO2
Observed Flight Rules
Dec-16 @ 14:14 UTC
(23 minutes ago)
VFR
Wind Visibility
Calm 10 miles
Clouds
  • Overcast at 6,000' AGL
Temperature Dewpoint
-3°C / 27°F -4°C / 25°F
Humidity Altimeter Pressure
93% 29.8" Hg 1009 hPa